• Join FlightAware (Why Join?)
  • Login
  • US Flag 
07:26AM EST


 

Airport Tracker/Info


-or-


 

Live Flight TrackerFlight Track Log ✈ CCA4230 ✈ 22-Jul-2014 ✈ ZSFZ / FOC - ZUUU / CTU

Flight Track Log - Related Links

Times and Time Zones

All times are in EDT time to prevent confusion due to time zone crossing. See the CCA4230 flight status page for this flight to view local times or setup timezone preferences in your user account.

Time Position Orientation Groundspeed Altitude Reporting Facility
EDT Latitude Longitude Course Direction KTS MPH feet Rate Location/Type
08:45AM 26.2404 118.8213 292° West  Level Estimated
08:46AM 26.2740 118.7275 292° West  Level Estimated
08:47AM 26.3075 118.6336 292° West  Level Estimated
08:48AM 26.3410 118.5397 292° West  Level Estimated
08:49AM 26.3745 118.4457 292° West  Level Estimated
08:50AM 26.4079 118.3517 292° West  Level Estimated
08:51AM 26.4412 118.2576 292° West  Level Estimated
08:52AM 26.4744 118.1635 292° West  Level Estimated
08:53AM 26.5076 118.0693 292° West  Level Estimated
08:54AM 26.5407 117.9750 291° West  Level Estimated
08:55AM 26.5738 117.8807 291° West  Level Estimated
08:56AM 26.6068 117.7863 291° West  Level Estimated
08:57AM 26.6397 117.6919 291° West  Level Estimated
08:58AM 26.6726 117.5974 291° West  Level Estimated
08:59AM 26.7054 117.5029 291° West  Level Estimated
09:00AM 26.7382 117.4083 291° West  Level Estimated
09:01AM 26.7709 117.3137 291° West  Level Estimated
09:02AM 26.8035 117.2190 291° West  Level Estimated
09:03AM 26.8361 117.1243 291° West  Level Estimated
09:04AM 26.8686 117.0295 291° West  Level Estimated
09:05AM 26.9010 116.9346 291° West  Level Estimated
09:06AM 26.9334 116.8397 291° West  Level Estimated
09:07AM 26.9657 116.7447 291° West  Level Estimated
09:08AM 26.9980 116.6497 291° West  Level Estimated
09:09AM 27.0301 116.5546 291° West  Level Estimated
09:10AM 27.0623 116.4595 291° West  Level Estimated
09:11AM 27.0943 116.3643 291° West  Level Estimated
09:12AM 27.1263 116.2691 291° West  Level Estimated
09:13AM 27.1582 116.1738 291° West  Level Estimated
09:14AM 27.1901 116.0785 291° West  Level Estimated
09:15AM 27.2219 115.9831 291° West  Level Estimated
09:16AM 27.2536 115.8876 291° West  Level Estimated
09:17AM 27.2853 115.7921 290° West  Level Estimated
09:18AM 27.3169 115.6965 290° West  Level Estimated
09:19AM 27.3484 115.6009 290° West  Level Estimated
09:20AM 27.3799 115.5053 290° West  Level Estimated
09:21AM 27.4113 115.4095 290° West  Level Estimated
09:22AM 27.4427 115.3138 290° West  Level Estimated
09:23AM 27.4740 115.2179 290° West  Level Estimated
09:24AM 27.5052 115.1220 290° West  Level Estimated
09:25AM 27.5363 115.0261 290° West  Level Estimated
09:26AM 27.5674 114.9301 290° West  Level Estimated
09:27AM 27.5984 114.8341 290° West  Level Estimated
09:28AM 27.6294 114.7380 290° West  Level Estimated
09:29AM 27.6602 114.6418 290° West  Level Estimated
09:30AM 27.6911 114.5456 290° West  Level Estimated
09:31AM 27.7218 114.4493 290° West  Level Estimated
09:32AM 27.7525 114.3530 290° West  Level Estimated
09:33AM 27.7831 114.2566 290° West  Level Estimated
09:34AM 27.8137 114.1602 290° West  Level Estimated
09:35AM 27.8442 114.0637 290° West  Level Estimated
09:36AM 27.8746 113.9671 290° West  Level Estimated
09:37AM 27.9049 113.8706 290° West  Level Estimated
09:38AM 27.9352 113.7739 290° West  Level Estimated
09:39AM 27.9654 113.6772 290° West  Level Estimated
09:40AM 27.9956 113.5805 289° West  Level Estimated
09:41AM 28.0256 113.4837 289° West  Level Estimated
09:42AM 28.0556 113.3868 289° West  Level Estimated
09:43AM 28.0856 113.2899 289° West  Level Estimated
09:44AM 28.1154 113.1929 289° West  Level Estimated
09:45AM 28.1453 113.0959 289° West  Level Estimated
09:46AM 28.1750 112.9988 289° West  Level Estimated
09:47AM 28.2047 112.9016 289° West  Level Estimated
09:48AM 28.2343 112.8045 289° West  Level Estimated
09:49AM 28.2638 112.7072 289° West  Level Estimated
09:50AM 28.2933 112.6099 289° West  Level Estimated
09:51AM 28.3227 112.5126 289° West  Level Estimated
09:52AM 28.3520 112.4152 289° West  Level Estimated
09:53AM 28.3812 112.3177 289° West  Level Estimated
09:54AM 28.4104 112.2202 289° West  Level Estimated
09:55AM 28.4395 112.1227 289° West  Level Estimated
09:56AM 28.4686 112.0250 289° West  Level Estimated
09:57AM 28.4976 111.9274 289° West  Level Estimated
09:58AM 28.5265 111.8296 289° West  Level Estimated
09:59AM 28.5553 111.7318 289° West  Level Estimated
10:00AM 28.5841 111.6340 289° West  Level Estimated
10:01AM 28.6128 111.5361 288° West  Level Estimated
10:02AM 28.6414 111.4382 288° West  Level Estimated
10:03AM 28.6700 111.3402 288° West  Level Estimated
10:04AM 28.6984 111.2422 288° West  Level Estimated
10:05AM 28.7269 111.1441 288° West  Level Estimated
10:06AM 28.7552 111.0459 288° West  Level Estimated
10:07AM 28.7835 110.9477 288° West  Level Estimated
10:08AM 28.8117 110.8494 288° West  Level Estimated
10:09AM 28.8398 110.7511 288° West  Level Estimated
10:10AM 28.8679 110.6528 288° West  Level Estimated
10:11AM 28.8958 110.5544 288° West  Level Estimated
10:12AM 28.9238 110.4559 288° West  Level Estimated
10:13AM 28.9516 110.3574 288° West  Level Estimated
10:14AM 28.9794 110.2588 288° West  Level Estimated
10:15AM 29.0071 110.1601 288° West  Level Estimated
10:16AM 29.0347 110.0615 288° West  Level Estimated
10:17AM 29.0623 109.9627 288° West  Level Estimated
10:18AM 29.0898 109.8639 288° West  Level Estimated
10:19AM 29.1172 109.7651 288° West  Level Estimated
10:20AM 29.1445 109.6662 288° West  Level Estimated
10:21AM 29.1718 109.5673 288° West  Level Estimated
10:22AM 29.1990 109.4683 287° West  Level Estimated
10:23AM 29.2261 109.3692 287° West  Level Estimated
10:24AM 29.2531 109.2701 287° West  Level Estimated
10:25AM 29.2801 109.1710 287° West  Level Estimated
10:26AM 29.3070 109.0717 287° West  Level Estimated
10:27AM 29.3338 108.9725 287° West  Level Estimated
10:28AM 29.3606 108.8732 287° West  Level Estimated
10:29AM 29.3873 108.7738 287° West  Level Estimated
10:30AM 29.4139 108.6744 287° West  Level Estimated
10:31AM 29.4404 108.5749 287° West  Level Estimated
10:32AM 29.4669 108.4754 287° West  Level Estimated
10:33AM 29.4933 108.3758 287° West  Level Estimated
10:34AM 29.5196 108.2762 287° West  Level Estimated
10:35AM 29.5458 108.1765 287° West  Level Estimated
10:36AM 29.5720 108.0768 287° West  Level Estimated
10:37AM 29.5981 107.9770 287° West  Level Estimated
10:38AM 29.6241 107.8772 287° West  Level Estimated
10:39AM 29.6500 107.7773 287° West  Level Estimated
10:40AM 29.6759 107.6774 287° West  Level Estimated
10:41AM 29.7017 107.5774 287° West  Level Estimated
10:42AM 29.7274 107.4774 287° West  Level Estimated
10:43AM 29.7530 107.3773 286° West  Level Estimated
10:44AM 29.7786 107.2771 286° West  Level Estimated
10:45AM 29.8041 107.1769 286° West  Level Estimated
10:46AM 29.8295 107.0767 286° West  Level Estimated
10:47AM 29.8548 106.9764 286° West  Level Estimated
10:48AM 29.8801 106.8761 286° West  Level Estimated
10:49AM 29.9053 106.7757 286° West  Level Estimated
10:50AM 29.9304 106.6752 286° West  Level Estimated
10:51AM 29.9554 106.5747 286° West  Level Estimated
10:52AM 29.9804 106.4742 286° West  Level Estimated
10:53AM 30.0052 106.3736 286° West  Level Estimated
10:54AM 30.0301 106.2729 286° West  Level Estimated
10:55AM 30.0548 106.1722 286° West  Level Estimated
10:56AM 30.0794 106.0715 286° West  Level Estimated
10:57AM 30.1040 105.9707 286° West  Level Estimated
10:58AM 30.1285 105.8699 286° West  Level Estimated
10:59AM 30.1529 105.7690 286° West  Level Estimated
11:00AM 30.1772 105.6680 286° West  Level Estimated
11:01AM 30.2015 105.5670 286° West  Level Estimated
11:02AM 30.2257 105.4660 286° West  Level Estimated
11:03AM 30.2498 105.3649 285° West  Level Estimated
11:04AM 30.2738 105.2637 285° West  Level Estimated
11:05AM 30.2978 105.1625 285° West  Level Estimated
11:06AM 30.3217 105.0613 285° West  Level Estimated
11:07AM 30.3455 104.9600 285° West  Level Estimated
11:08AM 30.3692 104.8587 285° West  Level Estimated
11:09AM 30.3928 104.7573 285° West  Level Estimated
11:10AM 30.4164 104.6558 285° West  Level Estimated
11:11AM 30.4399 104.5543 285° West  Level Estimated
11:12AM 30.4633 104.4528 285° West  Level Estimated
11:13AM 30.4866 104.3512 285° West  Level Estimated
11:14AM 30.5099 104.2496 285° West  Level Estimated
11:15AM 30.5330 104.1479 285° West  Level Estimated
11:16AM 30.5561 104.0462 285° West  Level Estimated
11:17AM 30.5785 103.9471 285° West  Level Estimated
11:18AM 30.5785 103.9471 North  Level Estimated
11:19AM 30.5785 103.9471 North  Level Estimated
11:20AM 30.5785 103.9471 North  Level Estimated
11:21AM 30.5785 103.9471 North  Level Estimated
11:22AM 30.5785 103.9471 North  Level Estimated
11:23AM 30.5785 103.9471 North  Level Estimated
11:24AM 30.5785 103.9471 North  Level Estimated
11:25AM 30.5785 103.9471 North  Level Estimated
11:26AM 30.5785 103.9471 North  Level Estimated
11:27AM 30.5785 103.9471 North  Level Estimated
11:28AM 30.5785 103.9471 North  Level Estimated
11:29AM 30.5785 103.9471 North  Level Estimated
11:30AM 30.5785 103.9471 North  Level Estimated
11:31AM 30.5785 103.9471 North  Level Estimated
11:32AM 30.5785 103.9471 North  Level Estimated
11:33AM 30.5785 103.9471 North  Level Estimated